createdAt,value
2018-09-13T00:02:07.442Z,6.47
2018-09-13T00:04:37.800Z,6.03
2018-09-13T00:07:08.160Z,7.00
2018-09-13T00:09:37.934Z,5.90
2018-09-13T00:12:07.816Z,5.80
2018-09-13T00:14:38.164Z,6.55
2018-09-13T00:17:08.470Z,6.00
2018-09-13T00:19:38.278Z,6.70
2018-09-13T00:22:08.180Z,7.00
2018-09-13T00:24:37.940Z,7.87
2018-09-13T00:27:07.729Z,7.17
2018-09-13T00:29:38.190Z,6.92
2018-09-13T00:32:08.523Z,6.78
2018-09-13T00:34:38.982Z,6.50
2018-09-13T00:37:09.418Z,6.45
2018-09-13T00:39:39.750Z,6.83
2018-09-13T00:42:09.540Z,6.10
2018-09-13T00:44:39.880Z,6.58
2018-09-13T00:50:46.062Z,6.05
2018-09-13T00:53:16.432Z,6.10
2018-09-13T00:55:46.758Z,6.92
2018-09-13T00:58:17.107Z,6.42
2018-09-13T01:00:47.418Z,6.95
2018-09-13T01:03:17.346Z,6.62
2018-09-13T01:05:47.474Z,6.30
2018-09-13T01:08:17.954Z,6.45
2018-09-13T01:10:47.719Z,7.70
2018-09-13T01:13:18.056Z,6.70
2018-09-13T01:15:48.460Z,7.17
2018-09-13T01:18:18.834Z,7.70
2018-09-13T01:20:48.674Z,7.08
2018-09-13T01:23:18.974Z,8.23
2018-09-13T01:25:48.730Z,7.53
2018-09-13T01:28:18.661Z,7.47
2018-09-13T01:30:48.401Z,7.53
2018-09-13T01:33:18.158Z,7.40
2018-09-13T01:35:47.985Z,7.53
2018-09-13T01:38:17.761Z,8.40
2018-09-13T01:40:47.685Z,9.37
2018-09-13T01:43:17.446Z,9.63
2018-09-13T01:45:47.189Z,9.50
2018-09-13T01:48:16.975Z,9.20
2018-09-13T01:50:46.719Z,7.37
2018-09-13T01:53:16.617Z,7.57
2018-09-13T01:55:46.351Z,7.80
2018-09-13T01:58:16.179Z,6.90
2018-09-13T02:00:45.951Z,7.60
2018-09-13T02:03:15.725Z,6.70
2018-09-13T02:09:21.217Z,6.50
2018-09-13T02:11:50.991Z,7.70
2018-09-13T02:14:20.737Z,7.97
2018-09-13T02:16:52.261Z,8.90
2018-09-13T02:19:22.027Z,8.87
2018-09-13T02:21:51.943Z,9.97
2018-09-13T02:24:22.067Z,9.93
2018-09-13T02:26:51.895Z,11.13
2018-09-13T02:29:21.645Z,10.83
2018-09-13T02:31:51.432Z,10.00
2018-09-13T02:34:21.306Z,11.63
2018-09-13T02:36:51.112Z,11.93
2018-09-13T02:39:20.909Z,12.60
2018-09-13T02:41:50.715Z,10.27
2018-09-13T02:44:20.525Z,10.27
2018-09-13T02:46:50.807Z,11.27
2018-09-13T02:49:20.712Z,10.57
2018-09-13T02:51:50.602Z,10.77
2018-09-13T02:54:20.421Z,10.20
2018-09-13T02:56:50.351Z,9.80
2018-09-13T02:59:20.290Z,9.93
2018-09-13T03:01:50.459Z,9.80
2018-09-13T03:04:20.425Z,9.73
2018-09-13T03:06:50.197Z,9.93
2018-09-13T03:09:19.969Z,9.43
2018-09-13T03:16:06.150Z,8.00
2018-09-13T03:18:35.929Z,8.10
2018-09-13T03:21:06.069Z,7.83
2018-09-13T03:23:36.007Z,8.73
2018-09-13T03:26:05.759Z,8.20
2018-09-13T03:28:35.639Z,8.40
2018-09-13T03:31:05.505Z,7.80
2018-09-13T03:33:35.315Z,8.37
2018-09-13T03:36:05.113Z,8.20
2018-09-13T03:38:34.865Z,8.10
2018-09-13T03:41:04.631Z,7.40
2018-09-13T03:43:34.439Z,8.47
2018-09-13T03:46:04.239Z,8.63
2018-09-13T03:48:33.957Z,8.83
2018-09-13T03:51:04.233Z,7.80
2018-09-13T03:53:34.027Z,7.60
2018-09-13T03:56:03.951Z,7.67
2018-09-13T03:58:33.681Z,7.63
2018-09-13T04:01:03.431Z,8.00
2018-09-13T04:03:33.808Z,7.47
2018-09-13T04:06:03.709Z,7.83
2018-09-13T04:08:33.598Z,7.30
2018-09-13T04:11:03.348Z,7.47
2018-09-13T04:13:33.177Z,8.30
2018-09-13T04:16:02.933Z,7.40
2018-09-13T04:18:32.667Z,8.30
2018-09-13T04:21:02.410Z,7.07
2018-09-13T04:23:32.208Z,7.77
2018-09-13T04:26:02.042Z,8.30
2018-09-13T04:28:31.874Z,8.43
2018-09-13T04:31:01.645Z,8.53
2018-09-13T04:33:31.381Z,8.67
2018-09-13T04:36:01.090Z,9.00
2018-09-13T04:38:30.880Z,8.97
2018-09-13T04:41:00.765Z,8.13
2018-09-13T04:43:30.599Z,11.23
2018-09-13T04:46:00.459Z,6.93
2018-09-13T04:48:30.221Z,6.97
2018-09-13T04:51:00.000Z,7.13
2018-09-13T04:53:29.813Z,7.07
2018-09-13T04:55:59.580Z,10.13
2018-09-13T04:58:29.426Z,8.23
2018-09-13T05:00:59.280Z,7.67
2018-09-13T05:03:29.862Z,9.93
2018-09-13T05:05:59.682Z,9.50
2018-09-13T05:08:29.454Z,9.73
2018-09-13T05:10:59.230Z,9.33
2018-09-13T05:13:28.971Z,9.83
2018-09-13T05:15:59.120Z,10.50
2018-09-13T05:18:28.896Z,17.23
2018-09-13T05:20:58.874Z,13.50
2018-09-13T05:23:28.670Z,14.30
2018-09-13T05:25:58.502Z,15.33
2018-09-13T05:28:30.732Z,15.90
2018-09-13T05:31:00.609Z,16.40
2018-09-13T05:33:30.507Z,11.97
2018-09-13T05:36:00.262Z,11.57
2018-09-13T05:38:30.056Z,11.80
2018-09-13T05:40:59.825Z,12.17
2018-09-13T05:43:29.600Z,13.13
2018-09-13T05:46:00.010Z,12.73
2018-09-13T05:48:29.770Z,17.43
2018-09-13T05:50:59.973Z,16.30
2018-09-13T05:53:29.908Z,19.37
2018-09-13T05:56:00.680Z,15.30
2018-09-13T05:58:31.899Z,17.63
2018-09-13T06:01:01.654Z,13.87
2018-09-13T06:03:31.424Z,12.07
2018-09-13T06:06:01.248Z,11.73
2018-09-13T06:08:31.067Z,12.87
2018-09-13T06:11:01.548Z,12.53
2018-09-13T06:13:31.886Z,11.78
2018-09-13T06:16:01.897Z,11.97
2018-09-13T16:19:34.751Z,3.92
2018-09-13T16:22:05.280Z,3.60
2018-09-13T16:24:35.690Z,4.12
2018-09-13T16:27:06.158Z,4.00
2018-09-13T16:29:36.711Z,3.85
2018-09-13T16:32:07.121Z,4.08
2018-09-13T16:34:37.970Z,4.30
2018-09-13T16:37:11.870Z,4.80
2018-09-13T16:39:47.666Z,4.62
2018-09-13T16:42:23.400Z,4.45
2018-09-13T16:44:56.018Z,5.75
2018-09-13T16:47:33.331Z,5.03
2018-09-13T16:50:04.230Z,5.17
2018-09-13T16:52:35.434Z,5.83
2018-09-13T16:55:06.662Z,5.87
2018-09-13T16:57:37.054Z,5.05
2018-09-13T17:00:07.808Z,5.12
2018-09-13T17:02:39.220Z,4.70
2018-09-13T17:05:09.552Z,5.42
2018-09-13T17:07:40.101Z,4.55
2018-09-13T17:10:10.678Z,5.05
2018-09-13T17:12:41.018Z,4.55
2018-09-13T17:15:11.714Z,5.03
2018-09-13T17:17:42.043Z,5.08
2018-09-13T17:20:12.531Z,5.30
2018-09-13T17:22:43.209Z,6.35
2018-09-13T17:25:13.919Z,6.85
2018-09-13T17:27:44.317Z,7.55
2018-09-13T17:30:14.776Z,7.50
2018-09-13T17:32:45.153Z,7.35
2018-09-13T17:35:15.545Z,8.30
2018-09-13T17:37:48.516Z,8.48
2018-09-13T17:40:21.301Z,8.40
2018-09-13T17:42:51.120Z,7.93
2018-09-13T17:45:20.953Z,9.40
2018-09-13T17:47:50.889Z,10.20
2018-09-13T17:50:20.988Z,8.57
2018-09-13T17:52:51.155Z,9.17
2018-09-13T17:55:21.013Z,9.23
2018-09-13T17:57:52.018Z,8.17
2018-09-13T18:00:21.888Z,8.70
2018-09-13T18:02:51.751Z,8.53
2018-09-13T18:05:21.638Z,9.43
2018-09-13T18:07:53.346Z,9.60
2018-09-13T18:10:23.218Z,9.60
2018-09-13T18:12:53.737Z,10.87
2018-09-13T18:15:23.612Z,12.20
2018-09-13T18:17:53.979Z,11.97
2018-09-13T18:20:26.385Z,12.00
2018-09-13T18:22:56.290Z,11.37
2018-09-13T18:25:26.443Z,11.63
2018-09-13T18:27:56.243Z,6.90
2018-09-13T18:30:26.617Z,7.70
2018-09-13T18:32:56.609Z,11.00
2018-09-13T18:35:26.479Z,7.23
2018-09-13T18:37:56.327Z,8.53
2018-09-13T18:40:26.178Z,8.20
2018-09-13T18:42:56.748Z,8.63
2018-09-13T18:45:26.559Z,8.97
2018-09-13T18:47:56.356Z,8.50
2018-09-13T18:50:26.735Z,8.80
2018-09-13T18:52:56.578Z,9.80
2018-09-13T18:55:26.473Z,9.07
2018-09-13T18:57:56.267Z,9.47
2018-09-13T19:00:26.133Z,9.73
2018-09-13T19:02:56.017Z,10.15
2018-09-13T19:05:25.786Z,9.10
2018-09-13T19:07:55.931Z,8.87
2018-09-13T19:10:26.694Z,9.43
2018-09-13T19:12:57.021Z,9.23
2018-09-13T19:15:27.381Z,9.35
2018-09-13T19:17:57.847Z,8.75
2018-09-13T19:20:28.570Z,9.70
2018-09-13T19:22:58.994Z,10.55
2018-09-13T19:25:29.488Z,9.30
2018-09-13T19:27:59.835Z,9.63
2018-09-13T19:30:30.796Z,11.27
2018-09-13T19:33:01.085Z,11.33
2018-09-13T19:35:30.925Z,10.80
2018-09-13T19:38:00.773Z,11.27
2018-09-13T19:40:30.811Z,10.80
2018-09-13T19:43:00.787Z,12.93
2018-09-13T19:45:30.614Z,12.53
2018-09-13T19:48:06.098Z,13.60
2018-09-13T19:50:41.835Z,12.80
2018-09-13T19:54:05.217Z,12.13
2018-09-13T19:56:35.161Z,13.63
2018-09-13T19:59:05.483Z,13.37
2018-09-13T20:01:35.394Z,13.03
2018-09-13T20:04:05.254Z,13.63
2018-09-13T20:06:35.144Z,14.13
2018-09-13T20:10:37.404Z,11.63
2018-09-13T20:13:07.281Z,11.80
2018-09-13T20:15:37.079Z,10.13
2018-09-13T20:18:07.247Z,11.43
2018-09-13T20:20:37.333Z,10.67
2018-09-13T20:23:07.237Z,10.73
2018-09-13T20:25:44.075Z,12.33
2018-09-13T20:28:13.909Z,10.90
2018-09-13T20:30:43.970Z,10.33
2018-09-13T20:33:13.838Z,10.20
2018-09-13T20:35:43.824Z,10.57
2018-09-13T20:38:13.679Z,10.10
2018-09-13T20:40:43.891Z,10.20
2018-09-13T20:43:17.850Z,9.80
2018-09-13T20:45:48.397Z,8.90
2018-09-13T20:48:18.389Z,8.23
2018-09-13T20:50:48.261Z,7.57
2018-09-13T20:53:18.103Z,8.13
2018-09-13T20:55:47.909Z,7.33
2018-09-13T20:58:17.755Z,7.93
2018-09-13T21:04:23.763Z,8.67
2018-09-13T21:06:53.591Z,8.57
2018-09-13T21:09:23.405Z,9.17
2018-09-13T21:11:53.536Z,8.27
2018-09-13T21:14:23.347Z,9.47
2018-09-13T21:21:08.084Z,9.55
2018-09-13T21:23:38.643Z,9.47
2018-09-13T21:26:09.574Z,9.10
2018-09-13T21:28:39.486Z,8.50
2018-09-13T21:31:10.173Z,9.70
2018-09-13T21:33:40.950Z,9.10
2018-09-13T21:36:12.955Z,9.50
2018-09-13T21:38:43.919Z,8.20
2018-09-13T21:41:14.548Z,7.30
2018-09-13T21:43:45.302Z,7.63
2018-09-13T21:46:15.068Z,7.57
2018-09-13T21:48:45.293Z,7.50
2018-09-13T21:51:15.463Z,7.97
2018-09-13T21:53:45.733Z,8.20
2018-09-13T21:56:15.785Z,8.07
2018-09-13T21:58:46.061Z,8.73
2018-09-13T22:01:16.290Z,7.93
2018-09-13T22:03:46.486Z,8.40
2018-09-13T22:06:16.281Z,8.27
2018-09-13T22:08:46.104Z,7.80
2018-09-13T22:11:16.097Z,7.83
2018-09-13T22:13:46.711Z,8.87
2018-09-13T22:16:16.699Z,8.30
2018-09-13T22:18:46.688Z,8.47
2018-09-13T22:24:52.960Z,7.57
2018-09-13T22:27:22.889Z,7.23
2018-09-13T22:29:52.803Z,7.03
2018-09-13T22:32:22.644Z,7.00
2018-09-13T22:34:52.648Z,7.63
2018-09-13T22:40:58.353Z,7.97
2018-09-13T22:43:32.608Z,6.73
2018-09-13T22:46:02.546Z,7.33
2018-09-13T22:48:32.463Z,8.03
2018-09-13T22:51:02.426Z,7.10
2018-09-13T22:53:32.551Z,7.87
2018-09-13T22:56:02.746Z,6.40
2018-09-13T22:58:33.332Z,8.07
2018-09-13T23:01:03.316Z,6.73
2018-09-13T23:03:33.202Z,8.60
2018-09-13T23:06:03.863Z,9.30
2018-09-13T23:08:33.915Z,9.87
2018-09-13T23:11:03.880Z,10.03
2018-09-13T23:13:33.727Z,9.30
2018-09-13T23:16:04.286Z,9.80
2018-09-13T23:18:34.649Z,12.00
2018-09-13T23:21:05.129Z,11.83
2018-09-13T23:23:35.224Z,11.43
2018-09-13T23:26:05.179Z,12.60
2018-09-13T23:28:35.111Z,12.90
2018-09-13T23:31:05.198Z,14.10
2018-09-13T23:33:35.204Z,13.70
2018-09-13T23:36:05.121Z,14.13
2018-09-13T23:38:35.479Z,13.97
2018-09-13T23:41:05.447Z,13.00
2018-09-13T23:43:35.463Z,13.40
2018-09-13T23:46:06.452Z,14.97
2018-09-13T23:48:36.299Z,16.07
2018-09-13T23:51:06.277Z,16.27
2018-09-13T23:53:36.206Z,17.87
2018-09-13T23:56:08.945Z,17.43
2018-09-13T23:58:39.050Z,18.50
